Time;durP1;ratioP1;P1;durP2;ratioP2;P2;SDS_P1;SDS_P2;PMS_P1;PMS_P2;Temp;Humidity;BMP_temperature;BMP_pressure;BME280_temperature;BME280_humidity;BME280_pressure;Samples;Min_cycle;Max_cycle;Signal;HPM_P1;HPM_P2
2022/05/04 00:01:08;;;;;;;20.73;15.43;;;9.40;1.00;;;;;;5079469;28;20997;-58
2022/05/04 00:03:39;;;;;;;18.33;16.30;;;9.30;1.00;;;;;;5079361;28;20464;-58
2022/05/04 00:06:06;;;;;;;21.13;16.40;;;9.30;1.00;;;;;;5079989;28;20879;-59
2022/05/04 00:08:39;;;;;;;17.47;15.40;;;9.30;1.00;;;;;;5078530;28;20470;-56
2022/05/04 00:11:10;;;;;;;18.83;16.03;;;9.20;1.00;;;;;;5079407;28;20453;-57
2022/05/04 00:13:44;;;;;;;21.43;17.43;;;9.20;1.00;;;;;;5078627;28;20526;-59
2022/05/04 00:16:11;;;;;;;18.40;15.10;;;9.20;1.00;;;;;;5079384;28;20480;-58
2022/05/04 00:18:40;;;;;;;21.70;16.77;;;9.20;1.00;;;;;;5078527;28;20458;-58
2022/05/04 00:21:16;;;;;;;21.37;16.40;;;9.10;1.00;;;;;;5078584;28;20496;-58
2022/05/04 00:23:49;;;;;;;20.67;17.60;;;9.10;1.00;;;;;;5079553;28;20461;-58
2022/05/04 00:26:16;;;;;;;20.77;16.80;;;9.20;1.00;;;;;;5079255;28;20461;-58
2022/05/04 00:28:44;;;;;;;21.50;17.20;;;9.20;1.00;;;;;;5078436;28;20901;-58
2022/05/04 00:31:11;;;;;;;24.30;16.57;;;9.10;1.00;;;;;;5078644;28;20817;-59
2022/05/04 00:33:44;;;;;;;22.23;17.40;;;9.00;1.00;;;;;;5078904;28;20570;-58
2022/05/04 00:36:11;;;;;;;23.63;17.93;;;9.00;1.00;;;;;;5078279;28;20835;-58
2022/05/04 00:38:41;;;;;;;23.40;17.10;;;9.00;1.00;;;;;;5077193;28;20579;-58
2022/05/04 00:41:08;;;;;;;25.20;18.33;;;9.00;1.00;;;;;;5078690;28;20527;-58
2022/05/04 00:43:40;;;;;;;19.47;16.73;;;9.00;1.00;;;;;;5078516;28;20457;-58
2022/05/04 00:46:14;;;;;;;22.97;17.10;;;8.90;1.00;;;;;;5078864;28;20461;-59
2022/05/04 00:48:43;;;;;;;17.33;15.43;;;8.90;1.00;;;;;;5077414;28;20489;-59
2022/05/04 00:51:16;;;;;;;22.47;19.37;;;8.80;1.00;;;;;;5077564;28;20491;-57
2022/05/04 00:53:48;;;;;;;21.90;18.17;;;8.80;1.00;;;;;;5077228;28;20495;-58
2022/05/04 00:56:16;;;;;;;20.97;17.70;;;8.80;1.00;;;;;;5078736;28;20465;-58
2022/05/04 00:58:57;;;;;;;20.70;17.43;;;8.80;1.00;;;;;;5077678;28;20515;-58
2022/05/04 01:01:28;;;;;;;21.57;17.90;;;8.80;1.00;;;;;;5078627;28;20487;-58
2022/05/04 01:03:55;;;;;;;22.27;17.90;;;8.80;1.00;;;;;;5077830;28;20466;-58
2022/05/04 01:06:26;;;;;;;21.00;17.37;;;8.80;1.00;;;;;;5078586;28;20465;-57
2022/05/04 01:09:00;;;;;;;22.53;17.13;;;8.80;1.00;;;;;;5077522;28;20457;-58
2022/05/04 01:11:27;;;;;;;24.50;17.97;;;8.70;1.00;;;;;;5078205;28;20506;-58
2022/05/04 01:14:05;;;;;;;22.10;17.13;;;8.70;1.00;;;;;;5078163;28;20461;-58
2022/05/04 01:16:35;;;;;;;24.07;17.10;;;8.70;1.00;;;;;;5077738;28;21531;-58
2022/05/04 01:19:07;;;;;;;22.00;18.43;;;8.70;1.00;;;;;;5077562;28;20495;-58
2022/05/04 01:21:37;;;;;;;21.70;16.33;;;8.70;1.00;;;;;;5077558;28;20489;-58
2022/05/04 01:24:09;;;;;;;27.60;18.73;;;8.60;1.00;;;;;;5077984;28;20480;-58
2022/05/04 01:26:36;;;;;;;21.23;18.00;;;8.60;1.00;;;;;;5078115;28;20500;-58
2022/05/04 01:29:06;;;;;;;21.23;17.70;;;8.50;1.00;;;;;;5077359;28;20508;-58
2022/05/04 01:31:34;;;;;;;24.57;17.97;;;8.50;1.00;;;;;;5076903;28;20751;-58
2022/05/04 01:34:04;;;;;;;20.97;18.30;;;8.50;1.00;;;;;;5077401;28;20519;-59
2022/05/04 01:36:31;;;;;;;19.20;17.13;;;8.60;1.00;;;;;;5077802;28;20522;-58
2022/05/04 01:38:58;;;;;;;23.70;18.17;;;8.50;1.00;;;;;;5077131;28;20484;-58
2022/05/04 01:44:11;;;;;;;22.53;17.27;;;8.50;1.00;;;;;;5076935;28;20440;-58
2022/05/04 01:46:44;;;;;;;20.63;18.00;;;8.50;1.00;;;;;;5077175;28;20465;-57
2022/05/04 01:49:11;;;;;;;19.73;17.73;;;8.40;1.00;;;;;;5077556;28;20561;-58
2022/05/04 01:51:48;;;;;;;26.83;17.93;;;8.40;1.00;;;;;;5077094;28;20481;-59
2022/05/04 01:54:20;;;;;;;22.97;17.83;;;8.40;1.00;;;;;;5077618;28;20893;-58
2022/05/04 01:56:51;;;;;;;23.30;17.47;;;8.30;1.00;;;;;;5077090;28;20461;-58
2022/05/04 01:59:20;;;;;;;20.30;15.93;;;8.30;1.00;;;;;;5077508;28;20465;-58
2022/05/04 02:01:49;;;;;;;20.20;16.83;;;8.30;1.00;;;;;;5076601;28;20955;-58
2022/05/04 02:04:18;;;;;;;20.93;17.10;;;8.20;1.00;;;;;;5077808;28;20461;-59
2022/05/04 02:06:46;;;;;;;21.57;17.80;;;8.20;1.00;;;;;;5076961;28;20517;-58
2022/05/04 02:09:13;;;;;;;21.17;18.13;;;8.20;1.00;;;;;;5077246;28;20773;-58
2022/05/04 02:11:40;;;;;;;19.70;16.90;;;8.20;1.00;;;;;;5076419;28;20507;-59
2022/05/04 02:14:09;;;;;;;18.27;15.13;;;8.20;1.00;;;;;;5077725;28;20815;-58
2022/05/04 02:16:38;;;;;;;22.93;17.33;;;8.10;1.00;;;;;;5076897;28;20457;-59
2022/05/04 02:19:15;;;;;;;23.13;17.50;;;8.00;1.00;;;;;;5077511;28;20568;-58
2022/05/04 02:21:46;;;;;;;24.47;17.60;;;8.00;1.00;;;;;;5076953;28;20588;-59
2022/05/04 02:24:13;;;;;;;20.87;17.37;;;8.00;1.00;;;;;;5077542;28;20890;-58
2022/05/04 02:26:42;;;;;;;23.57;17.50;;;8.00;1.00;;;;;;5076281;28;20839;-58
2022/05/04 02:29:10;;;;;;;28.83;18.10;;;8.00;1.00;;;;;;5076591;28;20977;-59
2022/05/04 02:31:37;;;;;;;24.53;18.40;;;7.90;1.00;;;;;;5076976;28;20514;-59
2022/05/04 02:34:09;;;;;;;20.83;17.03;;;7.90;1.00;;;;;;5076782;28;20540;-58
2022/05/04 02:39:34;;;;;;;21.50;17.63;;;8.00;1.00;;;;;;5076742;28;20433;-58
2022/05/04 02:42:01;;;;;;;19.00;16.43;;;8.00;1.00;;;;;;5077165;28;20488;-58
2022/05/04 02:44:31;;;;;;;23.00;17.40;;;7.80;1.00;;;;;;5076544;28;20832;-58
2022/05/04 02:47:04;;;;;;;22.27;16.70;;;7.80;1.00;;;;;;5078772;28;20476;-58
2022/05/04 02:49:31;;;;;;;22.93;18.37;;;7.80;1.00;;;;;;5081107;28;20556;-58
2022/05/04 02:52:05;;;;;;;21.53;17.60;;;7.70;1.00;;;;;;5080373;28;20555;-58
2022/05/04 02:54:32;;;;;;;22.43;18.30;;;7.70;1.00;;;;;;5080300;28;20457;-58
2022/05/04 02:56:59;;;;;;;29.10;19.57;;;7.70;1.00;;;;;;5080715;28;20465;-58
2022/05/04 02:59:27;;;;;;;24.00;17.83;;;7.70;1.00;;;;;;5080061;28;20504;-58
2022/05/04 03:04:47;;;;;;;22.40;17.90;;;7.70;1.00;;;;;;5078845;28;20535;-59
2022/05/04 03:07:17;;;;;;;23.40;18.27;;;7.70;1.00;;;;;;5080298;28;20456;-58
2022/05/04 03:09:49;;;;;;;22.70;18.40;;;7.70;33.80;;;;;;5080225;28;20461;-59
2022/05/04 03:12:15;;;;;;;23.93;18.90;;;7.70;55.60;;;;;;5080991;28;20831;-58
2022/05/04 03:14:44;;;;;;;26.13;19.23;;;7.60;73.70;;;;;;5078961;28;20508;-58
2022/05/04 03:17:13;;;;;;;27.70;21.40;;;7.60;99.90;;;;;;5070844;28;20465;-59
2022/05/04 03:19:40;;;;;;;24.20;19.40;;;7.60;99.90;;;;;;5071444;28;20507;-58
2022/05/04 03:22:07;;;;;;;23.50;18.53;;;7.60;99.90;;;;;;5080449;28;20583;-58
2022/05/04 03:24:34;;;;;;;25.30;19.43;;;7.50;99.90;;;;;;5079237;28;20473;-58
2022/05/04 03:27:01;;;;;;;23.97;17.77;;;7.50;96.20;;;;;;5079873;28;20567;-59
2022/05/04 03:29:30;;;;;;;23.57;19.17;;;7.50;60.80;;;;;;5079933;28;20484;-58
2022/05/04 03:31:57;;;;;;;26.73;18.83;;;7.40;21.30;;;;;;5080154;28;20496;-59
2022/05/04 03:34:25;;;;;;;23.10;18.73;;;7.40;51.00;;;;;;5080093;28;20485;-58
2022/05/04 03:36:59;;;;;;;23.17;18.13;;;7.40;99.90;;;;;;5079070;28;20507;-58
2022/05/04 03:39:26;;;;;;;24.23;18.90;;;7.30;99.90;;;;;;5079911;28;20948;-59
2022/05/04 03:41:56;;;;;;;21.63;17.77;;;7.40;99.90;;;;;;5080154;28;20584;-58
2022/05/04 03:44:26;;;;;;;21.97;18.40;;;7.30;99.90;;;;;;5080047;28;20497;-58
2022/05/04 03:46:54;;;;;;;26.33;18.27;;;7.30;99.90;;;;;;5078755;28;20548;-58
2022/05/04 03:49:23;;;;;;;21.20;18.13;;;7.40;99.90;;;;;;5079760;28;20485;-59
2022/05/04 03:51:58;;;;;;;19.97;17.30;;;7.40;99.90;;;;;;5079509;28;20461;-59
2022/05/04 03:54:26;;;;;;;21.13;17.37;;;7.30;99.90;;;;;;5079387;28;20464;-58
2022/05/04 03:56:53;;;;;;;27.20;17.97;;;7.30;99.90;;;;;;5078278;28;20461;-59
2022/05/04 03:59:24;;;;;;;22.53;17.43;;;7.20;99.90;;;;;;5079509;28;20556;-59
2022/05/04 04:01:51;;;;;;;22.57;17.07;;;7.20;99.90;;;;;;5079158;28;21002;-58
2022/05/04 04:04:21;;;;;;;25.10;17.97;;;7.20;99.90;;;;;;5080113;28;20556;-58
2022/05/04 04:06:51;;;;;;;22.10;18.20;;;7.20;99.90;;;;;;5078594;28;20989;-58
2022/05/04 04:09:20;;;;;;;23.00;16.83;;;7.30;99.90;;;;;;5078001;28;20902;-59
2022/05/04 04:11:47;;;;;;;23.53;15.60;;;7.30;99.90;;;;;;5077890;28;20771;-58
2022/05/04 04:14:14;;;;;;;23.83;17.10;;;7.30;99.90;;;;;;5078001;28;20580;-59
2022/05/04 04:16:43;;;;;;;21.33;17.93;;;7.30;99.90;;;;;;5077441;28;20953;-59
2022/05/04 04:19:12;;;;;;;27.30;16.47;;;7.30;99.90;;;;;;5077893;28;20497;-59
2022/05/04 04:21:56;;;;;;;25.33;18.37;;;7.40;99.90;;;;;;5077621;28;20825;-59
2022/05/04 04:24:24;;;;;;;19.00;16.30;;;7.40;99.90;;;;;;5078473;28;20461;-60
2022/05/04 04:26:54;;;;;;;24.73;17.80;;;7.40;99.90;;;;;;5077945;28;20462;-59
2022/05/04 04:29:24;;;;;;;25.70;16.30;;;7.40;99.90;;;;;;5076621;28;20838;-58
2022/05/04 04:31:52;;;;;;;18.73;15.60;;;7.40;99.90;;;;;;5078706;28;20464;-59
2022/05/04 04:34:19;;;;;;;27.47;17.10;;;7.40;99.90;;;;;;5077663;28;20515;-59
2022/05/04 04:36:45;;;;;;;20.00;17.17;;;7.50;99.90;;;;;;5077627;28;20905;-57
2022/05/04 04:39:12;;;;;;;34.60;19.27;;;7.50;99.90;;;;;;5077566;28;20965;-59
2022/05/04 04:41:41;;;;;;;19.50;17.40;;;7.50;99.90;;;;;;5077437;28;20500;-58
2022/05/04 04:44:08;;;;;;;23.47;18.40;;;7.50;99.90;;;;;;5078083;28;20465;-58
2022/05/04 04:46:37;;;;;;;23.70;18.10;;;7.60;99.90;;;;;;5078664;28;20559;-59
2022/05/04 04:49:04;;;;;;;25.03;18.40;;;7.60;97.10;;;;;;5077604;28;20551;-59
2022/05/04 04:51:31;;;;;;;22.40;17.57;;;7.60;93.20;;;;;;5078514;28;20538;-58
2022/05/04 04:54:07;;;;;;;20.30;17.90;;;7.60;99.90;;;;;;5078499;28;20503;-60
2022/05/04 04:56:34;;;;;;;25.80;17.57;;;7.70;99.90;;;;;;5077537;28;20463;-59
2022/05/04 04:59:06;;;;;;;22.27;16.37;;;7.70;99.90;;;;;;5076592;28;20548;-58
2022/05/04 05:01:33;;;;;;;22.07;16.50;;;7.80;99.90;;;;;;5076888;28;20501;-59
2022/05/04 05:04:08;;;;;;;19.97;16.30;;;7.90;99.90;;;;;;5076514;28;20589;-59
2022/05/04 05:06:35;;;;;;;19.63;16.83;;;8.00;99.90;;;;;;5075122;28;20869;-59
2022/05/04 05:09:02;;;;;;;23.30;16.80;;;8.10;79.00;;;;;;5075244;28;20488;-59
2022/05/04 05:11:29;;;;;;;23.23;15.80;;;8.10;39.50;;;;;;5077602;28;20465;-59
2022/05/04 05:16:48;;;;;;;16.83;15.00;;;8.10;1.00;;;;;;5076311;28;20436;-58
2022/05/04 05:19:18;;;;;;;22.80;15.30;;;8.10;1.00;;;;;;5076324;28;20453;-58
2022/05/04 05:21:45;;;;;;;21.03;15.00;;;8.10;1.00;;;;;;5077482;28;20501;-59
2022/05/04 05:24:17;;;;;;;16.77;14.97;;;8.20;1.00;;;;;;5076683;28;20465;-59
2022/05/04 05:26:44;;;;;;;19.53;14.40;;;8.20;1.00;;;;;;5075971;28;20465;-59
2022/05/04 05:29:11;;;;;;;17.80;14.90;;;8.20;1.00;;;;;;5075999;28;20471;-59
2022/05/04 05:31:54;;;;;;;19.43;14.67;;;8.20;1.00;;;;;;5057827;28;20841;-59
2022/05/04 05:34:24;;;;;;;21.03;14.13;;;8.20;1.00;;;;;;5065372;28;20930;-59
2022/05/04 05:36:51;;;;;;;22.20;16.17;;;8.30;1.00;;;;;;5077629;28;20465;-59
2022/05/04 05:39:27;;;;;;;21.00;15.27;;;8.30;1.00;;;;;;5075394;28;20462;-59
2022/05/04 05:42:00;;;;;;;21.55;15.50;;;8.40;1.00;;;;;;5074633;28;20548;-59
2022/05/04 05:44:30;;;;;;;17.53;15.00;;;8.40;1.00;;;;;;5075637;28;20965;-58
2022/05/04 05:47:02;;;;;;;19.90;15.47;;;8.60;1.00;;;;;;5076633;28;20462;-59
2022/05/04 05:49:33;;;;;;;19.00;14.87;;;8.70;1.00;;;;;;5077568;28;20560;-59
2022/05/04 05:52:00;;;;;;;21.27;15.23;;;8.80;1.00;;;;;;5057158;28;20863;-59
2022/05/04 05:54:32;;;;;;;19.13;14.93;;;8.90;1.00;;;;;;5057376;28;20466;-59
2022/05/04 05:56:59;;;;;;;20.57;14.67;;;9.00;1.00;;;;;;5066131;28;20875;-59
2022/05/04 05:59:28;;;;;;;15.83;14.00;;;9.20;1.00;;;;;;5077072;28;20506;-59
2022/05/04 06:01:57;;;;;;;23.13;14.80;;;9.40;1.00;;;;;;5076758;28;20816;-59
2022/05/04 06:04:24;;;;;;;17.70;14.67;;;9.50;1.00;;;;;;5077476;28;20458;-60
2022/05/04 06:06:52;;;;;;;18.40;14.80;;;9.70;1.00;;;;;;5076854;28;20458;-59
2022/05/04 06:09:27;;;;;;;16.87;13.47;;;9.90;1.00;;;;;;5077247;28;20796;-60
2022/05/04 06:11:54;;;;;;;19.70;14.90;;;10.20;1.00;;;;;;5077111;28;20469;-59
2022/05/04 06:14:21;;;;;;;19.27;15.30;;;10.30;1.00;;;;;;5076948;28;20485;-60
2022/05/04 06:16:55;;;;;;;15.77;14.17;;;10.40;1.00;;;;;;5076269;28;20541;-58
2022/05/04 06:19:26;;;;;;;19.30;16.10;;;10.50;1.00;;;;;;5076130;28;20439;-59
2022/05/04 06:21:55;;;;;;;18.03;15.47;;;10.70;1.00;;;;;;5076368;28;20496;-59
2022/05/04 06:24:25;;;;;;;19.77;14.73;;;10.90;1.00;;;;;;5072459;28;20571;-59
2022/05/04 06:26:52;;;;;;;20.00;15.07;;;11.00;1.00;;;;;;5073437;28;20472;-60
2022/05/04 06:34:06;;;;;;;17.40;15.10;;;11.10;99.90;;;;;;5074873;28;20548;-59
2022/05/04 06:34:56;;;;;;;18.13;15.37;;;11.30;99.90;;;;;;5074741;28;20503;-59
2022/05/04 06:37:27;;;;;;;17.27;15.50;;;11.40;99.90;;;;;;5075023;28;20515;-58
2022/05/04 06:39:54;;;;;;;18.13;14.00;;;11.60;99.90;;;;;;5075116;28;20532;-59
2022/05/04 06:42:21;;;;;;;16.70;14.50;;;11.90;99.90;;;;;;5073721;28;20826;-59
2022/05/04 06:44:48;;;;;;;16.57;14.57;;;12.10;99.90;;;;;;5076542;28;20497;-58
2022/05/04 06:47:15;;;;;;;20.93;15.07;;;12.40;99.90;;;;;;5076818;28;20985;-59
2022/05/04 06:49:45;;;;;;;19.93;15.83;;;12.40;99.90;;;;;;5075694;28;20515;-59
2022/05/04 06:52:14;;;;;;;17.73;15.13;;;12.30;99.90;;;;;;5075921;28;20877;-59
2022/05/04 06:54:46;;;;;;;18.30;15.90;;;12.70;99.90;;;;;;5076319;28;20493;-60
2022/05/04 06:57:13;;;;;;;18.63;15.30;;;13.10;99.90;;;;;;5074944;28;20461;-59
2022/05/04 06:59:42;;;;;;;20.10;15.30;;;13.30;99.90;;;;;;5075305;28;20556;-60
2022/05/04 07:02:11;;;;;;;17.67;14.37;;;13.50;99.90;;;;;;5075176;28;20496;-60
2022/05/04 07:04:41;;;;;;;17.40;14.17;;;12.70;99.90;;;;;;5075896;28;20493;-60
2022/05/04 07:07:08;;;;;;;19.17;15.67;;;12.90;99.90;;;;;;5077079;28;20461;-60
2022/05/04 07:09:45;;;;;;;;;;;;;;;;;;;;;
2022/05/04 07:12:20;;;;;;;16.43;14.63;;;13.50;99.90;;;;;;5075354;28;20465;-60
2022/05/04 07:14:51;;;;;;;18.17;15.20;;;13.50;99.90;;;;;;5073394;28;20999;-58
2022/05/04 07:17:18;;;;;;;22.30;15.53;;;14.10;99.90;;;;;;5071140;28;20462;-60
2022/05/04 07:19:46;;;;;;;21.60;16.57;;;14.40;99.90;;;;;;5068314;28;20632;-60
2022/05/04 07:22:16;;;;;;;16.43;14.73;;;14.60;99.90;;;;;;5074877;28;20462;-60
2022/05/04 07:24:43;;;;;;;18.20;14.93;;;14.80;99.90;;;;;;5074735;28;20471;-59
2022/05/04 07:27:11;;;;;;;17.97;16.03;;;14.90;99.90;;;;;;5075524;28;20557;-60
2022/05/04 07:29:45;;;;;;;19.03;15.70;;;14.70;99.90;;;;;;5075258;28;20467;-59
2022/05/04 07:32:12;;;;;;;18.23;15.50;;;15.40;99.90;;;;;;5077171;28;20469;-60
2022/05/04 07:34:42;;;;;;;16.50;14.67;;;15.90;99.90;;;;;;5079704;28;20477;-60
2022/05/04 07:37:09;;;;;;;17.60;15.83;;;16.20;99.90;;;;;;5079940;28;20465;-61
2022/05/04 07:42:27;;;;;;;17.83;15.27;;;16.10;99.90;;;;;;5079033;28;20567;-60
2022/05/04 07:45:04;;;;;;;18.30;16.33;;;16.50;99.90;;;;;;5079652;28;20555;-60
2022/05/04 07:47:34;;;;;;;17.07;15.37;;;16.40;99.90;;;;;;5079545;28;20456;-60
2022/05/04 07:50:03;;;;;;;21.20;15.00;;;16.80;99.90;;;;;;5079722;28;20826;-60
2022/05/04 07:52:30;;;;;;;17.80;15.13;;;17.00;99.90;;;;;;5079223;28;20764;-60
2022/05/04 07:55:00;;;;;;;26.67;14.57;;;16.80;99.90;;;;;;5080167;28;20812;-60
2022/05/04 07:57:35;;;;;;;15.90;14.43;;;16.80;99.90;;;;;;5078950;28;20465;-61
2022/05/04 08:05:46;;;;;;;17.40;14.73;;;16.40;99.90;;;;;;5078775;28;20487;-61
2022/05/04 08:08:16;;;;;;;14.70;13.37;;;16.30;99.90;;;;;;5078915;28;20465;-61
2022/05/04 08:10:43;;;;;;;15.67;14.07;;;16.00;99.90;;;;;;5078296;28;20557;-61
2022/05/04 08:13:09;;;;;;;17.23;15.40;;;16.70;99.90;;;;;;5078809;28;20548;-61
2022/05/04 08:15:51;;;;;;;18.43;15.23;;;16.60;99.90;;;;;;5079299;28;20596;-60
2022/05/04 08:18:20;;;;;;;20.30;16.50;;;17.10;99.90;;;;;;5078510;28;20783;-61
2022/05/04 08:20:50;;;;;;;16.37;14.77;;;16.10;99.90;;;;;;5079149;28;20500;-60
2022/05/04 08:23:26;;;;;;;17.40;15.20;;;15.80;99.90;;;;;;5079362;28;20493;-61
2022/05/04 08:25:56;;;;;;;19.73;15.23;;;15.60;99.90;;;;;;5078701;28;20468;-61
2022/05/04 08:28:26;;;;;;;16.13;14.30;;;15.60;99.90;;;;;;5077693;28;20943;-61
2022/05/04 08:30:55;;;;;;;20.87;16.97;;;16.30;99.90;;;;;;5079195;28;20465;-60
2022/05/04 08:33:22;;;;;;;18.83;15.60;;;16.90;99.90;;;;;;5059194;28;20455;-61
2022/05/04 08:35:49;;;;;;;17.83;15.70;;;16.80;99.90;;;;;;5058958;28;20879;-60
2022/05/04 08:38:24;;;;;;;17.90;15.67;;;17.70;99.90;;;;;;5067876;28;20461;-61
2022/05/04 08:40:56;;;;;;;17.37;15.57;;;18.30;99.90;;;;;;5078897;28;20503;-61
2022/05/04 08:43:25;;;;;;;17.90;16.20;;;17.70;99.90;;;;;;5077331;28;20489;-61
2022/05/04 08:46:05;;;;;;;18.40;16.60;;;17.20;99.90;;;;;;5078834;28;20461;-61
2022/05/04 08:48:33;;;;;;;18.13;16.37;;;16.60;99.90;;;;;;5077954;28;20889;-61
2022/05/04 08:51:04;;;;;;;18.23;16.10;;;17.10;99.90;;;;;;5078887;28;20464;-61
2022/05/04 08:53:31;;;;;;;18.70;16.80;;;17.20;99.90;;;;;;5078540;28;20457;-61
2022/05/04 08:56:01;;;;;;;22.93;17.83;;;17.10;99.90;;;;;;5078651;28;20473;-61
2022/05/04 08:58:31;;;;;;;16.73;15.03;;;16.40;99.90;;;;;;5077844;28;20461;-61
2022/05/04 09:01:02;;;;;;;18.97;17.03;;;16.90;99.90;;;;;;5078734;28;20458;-61
2022/05/04 09:03:36;;;;;;;20.23;16.83;;;17.30;99.90;;;;;;5077718;28;21040;-59
2022/05/04 09:06:16;;;;;;;20.23;17.07;;;17.50;99.90;;;;;;5076974;28;20758;-61
2022/05/04 09:09:03;;;;;;;18.00;16.40;;;17.00;99.90;;;;;;5077710;28;20519;-61
2022/05/04 09:11:32;;;;;;;19.93;17.90;;;17.00;99.90;;;;;;5077223;28;20473;-60
2022/05/04 09:14:07;;;;;;;19.80;17.70;;;18.00;99.90;;;;;;5076181;28;20468;-60
2022/05/04 09:16:36;;;;;;;18.87;16.93;;;17.70;99.90;;;;;;5076806;28;20939;-61
2022/05/04 09:19:06;;;;;;;19.00;17.20;;;17.50;99.90;;;;;;5075810;28;20461;-61
2022/05/04 09:21:33;;;;;;;20.57;18.60;;;17.90;99.90;;;;;;5074425;28;20509;-60
2022/05/04 09:24:04;;;;;;;17.37;15.50;;;17.20;99.90;;;;;;5077662;28;20489;-60
2022/05/04 09:26:31;;;;;;;20.07;17.90;;;16.40;99.90;;;;;;5077150;28;20461;-61
2022/05/04 09:29:00;;;;;;;20.63;18.20;;;16.10;99.90;;;;;;5076703;28;20663;-61
2022/05/04 09:31:38;;;;;;;18.50;16.63;;;16.70;99.90;;;;;;5075659;28;20540;-61
2022/05/04 09:34:15;;;;;;;18.80;16.90;;;16.90;99.90;;;;;;5076149;28;20634;-60
2022/05/04 09:44:54;;;;;;;20.10;18.13;;;17.10;99.90;;;;;;5077137;28;20465;-61
2022/05/04 09:45:26;;;;;;;20.37;18.13;;;15.60;99.90;;;;;;5064229;28;20526;-59
2022/05/04 09:47:54;;;;;;;23.43;18.67;;;15.60;99.90;;;;;;5076982;28;20948;-60
2022/05/04 09:50:32;;;;;;;23.87;19.57;;;16.00;99.90;;;;;;5076743;28;20444;-61
2022/05/04 09:53:02;;;;;;;20.40;17.10;;;16.70;99.90;;;;;;5078010;28;20479;-61
2022/05/04 09:55:32;;;;;;;20.60;17.10;;;17.00;99.90;;;;;;5076693;28;20453;-62
2022/05/04 09:58:05;;;;;;;20.50;18.20;;;17.90;99.90;;;;;;5077522;28;20813;-62
2022/05/04 10:00:32;;;;;;;22.33;17.77;;;18.20;99.90;;;;;;5074464;28;20836;-62
2022/05/04 10:03:04;;;;;;;22.40;19.27;;;18.00;99.90;;;;;;5073034;28;20473;-62
2022/05/04 10:05:39;;;;;;;23.40;21.10;;;18.40;99.90;;;;;;5074466;28;20492;-62
2022/05/04 10:08:09;;;;;;;24.23;19.80;;;18.20;99.90;;;;;;5077407;28;20488;-62
2022/05/04 10:10:37;;;;;;;21.10;19.00;;;18.60;99.90;;;;;;5077070;28;20504;-61
2022/05/04 10:13:13;;;;;;;21.73;19.50;;;19.70;99.90;;;;;;5076640;28;20973;-62
2022/05/04 10:15:45;;;;;;;23.17;20.97;;;20.60;99.90;;;;;;5076198;28;20567;-62
2022/05/04 10:18:19;;;;;;;22.90;20.80;;;19.70;99.90;;;;;;5065221;28;20560;-61
2022/05/04 10:20:56;;;;;;;25.30;21.53;;;19.60;99.90;;;;;;5075743;28;21062;-62
2022/05/04 10:23:27;;;;;;;25.03;22.43;;;19.70;99.90;;;;;;5072656;28;21114;-61
2022/05/04 10:25:58;;;;;;;24.97;22.37;;;19.40;99.90;;;;;;5065668;28;20465;-62
2022/05/04 10:28:28;;;;;;;25.03;22.50;;;19.70;99.90;;;;;;5074485;28;20473;-61
2022/05/04 10:30:55;;;;;;;25.43;23.13;;;20.40;99.90;;;;;;5077563;28;20497;-62
2022/05/04 10:33:25;;;;;;;25.80;23.33;;;20.70;99.90;;;;;;5076644;28;20434;-61
2022/05/04 10:35:56;;;;;;;30.00;27.20;;;20.10;99.90;;;;;;5076935;28;20472;-61
2022/05/04 10:38:44;;;;;;;26.03;23.43;;;19.80;99.90;;;;;;5076818;28;20912;-61
2022/05/04 10:41:14;;;;;;;24.60;22.30;;;19.20;99.90;;;;;;5077264;28;20906;-61
2022/05/04 10:43:45;;;;;;;26.00;23.23;;;18.00;99.90;;;;;;5076201;28;20588;-62
2022/05/04 10:46:16;;;;;;;25.30;22.50;;;17.70;99.90;;;;;;5077429;28;20491;-61
2022/05/04 10:48:44;;;;;;;25.20;22.47;;;18.20;99.90;;;;;;5076678;28;20512;-62
2022/05/04 10:51:21;;;;;;;23.27;20.90;;;18.40;99.90;;;;;;5076924;28;20504;-62
2022/05/04 10:53:53;;;;;;;26.17;23.47;;;18.40;99.90;;;;;;5075752;28;20468;-62
2022/05/04 10:56:24;;;;;;;27.50;24.80;;;18.40;99.90;;;;;;5075615;28;20499;-62
2022/05/04 10:58:59;;;;;;;25.97;23.43;;;18.50;99.90;;;;;;5084680;28;20971;-62
2022/05/04 11:01:34;;;;;;;23.53;21.13;;;19.30;99.90;;;;;;5076687;28;20465;-62
2022/05/04 11:04:22;;;;;;;25.77;22.50;;;19.80;99.90;;;;;;5075770;28;20476;-62
2022/05/04 11:07:01;;;;;;;28.03;25.07;;;20.30;99.90;;;;;;5076322;28;20472;-62
2022/05/04 11:09:31;;;;;;;28.90;26.00;;;20.00;99.90;;;;;;5070369;28;20852;-62
2022/05/04 11:12:04;;;;;;;25.23;22.93;;;20.80;99.90;;;;;;5077456;28;20957;-62
2022/05/04 11:14:33;;;;;;;25.37;22.77;;;19.70;99.90;;;;;;5073012;28;20572;-62
2022/05/04 11:17:01;;;;;;;25.90;23.30;;;20.10;99.90;;;;;;5078866;28;20843;-62
2022/05/04 11:19:30;;;;;;;26.03;23.73;;;20.50;99.90;;;;;;5076783;28;20564;-62
2022/05/04 11:21:59;;;;;;;28.90;26.00;;;19.80;99.90;;;;;;5077026;28;20518;-62
2022/05/04 11:24:27;;;;;;;26.27;23.87;;;19.80;99.90;;;;;;5078928;28;20489;-62
2022/05/04 11:26:59;;;;;;;29.47;26.47;;;19.60;99.90;;;;;;5076224;28;20563;-62
2022/05/04 11:29:27;;;;;;;28.63;25.80;;;20.30;99.90;;;;;;5077715;28;20507;-62
2022/05/04 11:31:56;;;;;;;28.07;25.33;;;20.90;99.90;;;;;;5075445;28;20994;-62
2022/05/04 11:34:24;;;;;;;26.27;23.80;;;21.10;99.90;;;;;;5077957;28;20453;-62
2022/05/04 11:36:52;;;;;;;26.40;23.47;;;20.50;99.90;;;;;;5078215;28;20547;-62
2022/05/04 11:39:26;;;;;;;25.60;23.20;;;21.10;99.90;;;;;;5078346;28;20527;-61
2022/05/04 11:41:59;;;;;;;30.10;27.10;;;20.30;99.90;;;;;;5079462;28;20914;-61
2022/05/04 11:44:32;;;;;;;27.63;25.03;;;19.40;99.90;;;;;;5079443;28;20511;-61
2022/05/04 11:47:03;;;;;;;27.67;24.80;;;19.70;99.90;;;;;;5078360;28;20526;-62
2022/05/04 11:49:34;;;;;;;26.30;23.73;;;20.30;99.90;;;;;;5075854;28;20469;-62
2022/05/04 11:52:05;;;;;;;28.23;25.63;;;20.30;99.90;;;;;;5075169;28;20556;-62
2022/05/04 11:54:48;;;;;;;26.60;23.87;;;20.00;99.90;;;;;;5076568;28;20988;-62
2022/05/04 11:57:19;;;;;;;26.10;23.63;;;20.70;99.90;;;;;;5074379;28;20572;-60
2022/05/04 11:59:50;;;;;;;25.27;22.97;;;20.30;99.90;;;;;;5076899;28;20508;-61
2022/05/04 12:02:20;;;;;;;28.13;25.27;;;20.00;99.90;;;;;;5075646;28;20905;-61
2022/05/04 12:04:50;;;;;;;29.50;26.60;;;20.40;99.90;;;;;;5076334;28;21833;-61
2022/05/04 12:07:18;;;;;;;27.77;25.13;;;20.70;99.90;;;;;;5074747;28;20839;-61
2022/05/04 12:09:46;;;;;;;28.30;25.80;;;20.20;99.90;;;;;;5077133;28;20469;-60
2022/05/04 12:12:17;;;;;;;27.50;24.90;;;20.50;99.90;;;;;;5074715;28;20447;-61
2022/05/04 12:14:44;;;;;;;30.43;27.50;;;21.60;99.90;;;;;;5076441;28;20564;-62
2022/05/04 12:17:11;;;;;;;27.83;25.43;;;22.00;99.90;;;;;;5074155;28;20477;-61
2022/05/04 12:19:38;;;;;;;28.50;25.80;;;21.30;99.90;;;;;;5077215;28;20877;-61
2022/05/04 12:22:07;;;;;;;28.30;25.37;;;22.10;99.90;;;;;;5076701;28;20849;-61
2022/05/04 12:24:43;;;;;;;26.33;23.87;;;21.70;99.90;;;;;;5078511;28;20496;-62
2022/05/04 12:27:13;;;;;;;26.90;24.60;;;22.90;99.90;;;;;;5078527;28;20498;-61
2022/05/04 12:35:16;;;;;;;23.13;21.33;;;22.80;99.90;;;;;;5075958;28;20500;-61
2022/05/04 12:37:55;;;;;;;25.90;23.50;;;22.60;99.90;;;;;;5077587;28;20461;-61
2022/05/04 12:40:26;;;;;;;24.67;22.47;;;23.00;99.90;;;;;;5076488;28;20514;-61
2022/05/04 12:43:03;;;;;;;24.93;22.83;;;23.30;99.90;;;;;;5076931;28;20473;-61
2022/05/04 12:45:33;;;;;;;24.00;22.03;;;23.30;99.90;;;;;;5076167;28;20497;-61
2022/05/04 12:48:11;;;;;;;24.33;22.03;;;23.80;99.90;;;;;;5076284;28;20863;-61
2022/05/04 12:50:40;;;;;;;22.70;20.90;;;22.60;99.90;;;;;;5076244;28;20922;-61
2022/05/04 12:53:20;;;;;;;23.20;21.20;;;21.60;99.90;;;;;;5077430;28;20906;-61
2022/05/04 12:58:36;;;;;;;21.67;19.77;;;22.80;99.90;;;;;;5074052;28;20480;-61
2022/05/04 13:01:03;;;;;;;21.47;19.20;;;22.60;99.90;;;;;;5075317;28;20461;-61
2022/05/04 13:03:32;;;;;;;23.10;20.93;;;21.80;99.90;;;;;;5075182;28;20505;-61
2022/05/04 13:06:02;;;;;;;22.43;20.47;;;21.90;99.90;;;;;;5075186;28;20493;-61
2022/05/04 13:08:37;;;;;;;20.97;19.27;;;21.70;99.90;;;;;;5075959;28;20477;-60
2022/05/04 13:11:13;;;;;;;20.53;18.83;;;22.10;99.90;;;;;;5076886;28;20479;-60
2022/05/04 13:13:46;;;;;;;19.30;17.60;;;21.40;99.90;;;;;;5076316;28;20927;-61
2022/05/04 13:16:15;;;;;;;19.43;17.83;;;21.50;99.90;;;;;;5076876;28;20925;-60
2022/05/04 13:18:54;;;;;;;17.53;16.07;;;22.20;99.90;;;;;;5077138;28;20497;-61
2022/05/04 13:21:23;;;;;;;18.33;16.53;;;22.40;99.90;;;;;;5077182;28;20535;-60
2022/05/04 13:23:51;;;;;;;18.40;16.77;;;23.50;99.90;;;;;;5077131;28;20659;-61
2022/05/04 13:26:19;;;;;;;22.33;15.50;;;23.70;99.90;;;;;;5077768;28;20584;-61
2022/05/04 13:28:52;;;;;;;17.83;16.20;;;22.80;99.90;;;;;;5076850;28;20473;-60